Time;durP1;ratioP1;P1;durP2;ratioP2;P2;SDS_P1;SDS_P2;PMS_P1;PMS_P2;Temp;Humidity;BMP_temperature;BMP_pressure;BME280_temperature;BME280_humidity;BME280_pressure;Samples;Min_cycle;Max_cycle;Signal;HPM_P1;HPM_P2
2022/02/12 00:01:32;;;;;;;32.50;7.33;;;4.90;92.50;;;;;;5075332;28;20948;-69
2022/02/12 00:03:58;;;;;;;29.27;7.40;;;4.90;92.50;;;;;;5075525;28;20461;-68
2022/02/12 00:06:25;;;;;;;24.57;6.40;;;4.90;92.20;;;;;;5075807;28;20453;-69
2022/02/12 00:08:52;;;;;;;31.57;7.17;;;4.90;92.40;;;;;;5075316;28;20440;-69
2022/02/12 00:11:19;;;;;;;20.70;6.60;;;4.90;92.60;;;;;;5075135;28;20958;-69
2022/02/12 00:13:46;;;;;;;29.90;5.80;;;4.90;92.60;;;;;;5075316;28;20449;-68
2022/02/12 00:16:14;;;;;;;24.53;5.20;;;4.90;92.60;;;;;;5075087;28;20962;-69
2022/02/12 00:18:40;;;;;;;15.70;5.70;;;4.90;92.60;;;;;;5075360;28;20436;-69
2022/02/12 00:21:07;;;;;;;22.83;6.23;;;4.80;92.70;;;;;;5075100;28;20473;-70
2022/02/12 00:23:34;;;;;;;14.33;5.50;;;4.80;92.70;;;;;;5075235;28;20441;-69
2022/02/12 00:26:01;;;;;;;20.37;6.30;;;4.80;92.80;;;;;;5075097;28;20862;-69
2022/02/12 00:28:27;;;;;;;22.40;6.70;;;4.80;92.50;;;;;;5075237;28;20440;-69
2022/02/12 00:30:54;;;;;;;19.10;6.30;;;4.70;92.40;;;;;;5074771;28;20961;-69
2022/02/12 00:33:22;;;;;;;18.37;6.50;;;4.70;92.70;;;;;;5075278;28;20444;-69
2022/02/12 00:35:49;;;;;;;19.47;5.80;;;4.60;92.70;;;;;;5075221;28;20515;-68
2022/02/12 00:38:16;;;;;;;19.50;6.90;;;4.60;92.70;;;;;;5075870;28;20456;-69
2022/02/12 00:40:42;;;;;;;14.43;6.43;;;4.60;92.60;;;;;;5076482;28;20447;-68
2022/02/12 00:43:09;;;;;;;20.90;5.70;;;4.60;93.00;;;;;;5076482;28;20445;-69
2022/02/12 00:45:36;;;;;;;18.30;5.67;;;4.60;93.50;;;;;;5074770;28;20643;-69
2022/02/12 00:48:03;;;;;;;28.23;6.03;;;4.60;93.50;;;;;;5074479;28;20904;-69
2022/02/12 00:50:31;;;;;;;21.20;6.57;;;4.50;93.30;;;;;;5074685;28;20445;-69
2022/02/12 00:52:58;;;;;;;21.20;7.00;;;4.50;93.40;;;;;;5074318;28;20467;-69
2022/02/12 00:55:25;;;;;;;21.17;6.20;;;4.50;93.50;;;;;;5074178;28;20992;-68
2022/02/12 00:57:52;;;;;;;20.07;6.00;;;4.50;93.50;;;;;;5074226;28;20451;-69
2022/02/12 01:00:19;;;;;;;12.43;6.30;;;4.50;93.70;;;;;;5074198;28;20962;-68
2022/02/12 01:02:45;;;;;;;18.40;5.80;;;4.50;93.90;;;;;;5074446;28;20448;-68
2022/02/12 01:05:12;;;;;;;17.70;5.80;;;4.50;93.90;;;;;;5074409;28;20472;-68
2022/02/12 01:07:40;;;;;;;18.33;6.40;;;4.50;93.80;;;;;;5074001;28;20472;-69
2022/02/12 01:10:08;;;;;;;11.53;5.30;;;4.50;93.80;;;;;;5074305;28;20539;-69
2022/02/12 01:12:35;;;;;;;21.93;5.73;;;4.50;93.60;;;;;;5074252;28;20448;-69
2022/02/12 01:15:02;;;;;;;18.20;5.50;;;4.50;93.70;;;;;;5074025;28;20487;-68
2022/02/12 01:17:30;;;;;;;21.03;8.70;;;4.50;93.70;;;;;;5074851;28;20457;-68
2022/02/12 01:19:57;;;;;;;18.53;6.87;;;4.50;93.60;;;;;;5074196;28;20471;-69
2022/02/12 01:22:24;;;;;;;11.27;6.97;;;4.50;93.80;;;;;;5074051;28;20464;-69
2022/02/12 01:24:53;;;;;;;14.13;6.00;;;4.50;93.80;;;;;;5073741;28;20523;-68
2022/02/12 01:27:19;;;;;;;11.60;6.30;;;4.50;93.80;;;;;;5073966;28;20456;-69
2022/02/12 01:29:47;;;;;;;17.00;5.57;;;4.50;93.60;;;;;;5073848;28;20440;-68
2022/02/12 01:32:14;;;;;;;11.07;6.00;;;4.50;93.50;;;;;;5073899;28;20445;-68
2022/02/12 01:34:40;;;;;;;18.57;6.00;;;4.50;93.40;;;;;;5073131;28;20487;-68
2022/02/12 01:37:08;;;;;;;16.83;6.53;;;4.40;93.50;;;;;;5073878;28;20452;-68
2022/02/12 01:39:36;;;;;;;14.13;6.30;;;4.50;93.60;;;;;;5073472;28;20951;-68
2022/02/12 01:42:05;;;;;;;28.10;7.10;;;4.40;93.60;;;;;;5073378;28;20465;-69
2022/02/12 01:44:34;;;;;;;15.87;7.90;;;4.50;93.60;;;;;;5073588;28;20461;-69
2022/02/12 01:47:01;;;;;;;18.70;5.83;;;4.50;93.60;;;;;;5073623;28;20433;-69
2022/02/12 01:49:29;;;;;;;11.17;6.00;;;4.40;93.50;;;;;;5074033;28;20449;-69
2022/02/12 01:51:56;;;;;;;16.80;6.60;;;4.50;93.60;;;;;;5073541;28;20483;-69
2022/02/12 01:54:24;;;;;;;16.07;6.53;;;4.40;93.40;;;;;;5073165;28;20472;-68
2022/02/12 01:56:53;;;;;;;17.50;6.30;;;4.40;93.30;;;;;;5073499;28;20440;-68
2022/02/12 01:59:22;;;;;;;14.93;5.53;;;4.40;93.20;;;;;;5073513;28;20470;-69
2022/02/12 02:01:49;;;;;;;9.70;6.00;;;4.40;93.20;;;;;;5073592;28;20492;-69
2022/02/12 02:04:16;;;;;;;12.50;6.27;;;4.40;93.20;;;;;;5073250;28;20998;-68
2022/02/12 02:06:43;;;;;;;17.83;5.70;;;4.30;93.30;;;;;;5073451;28;20460;-68
2022/02/12 02:09:11;;;;;;;9.30;5.53;;;4.30;93.30;;;;;;5073471;28;20445;-68
2022/02/12 02:11:38;;;;;;;9.40;5.60;;;4.30;93.40;;;;;;5074037;28;20484;-69
2022/02/12 02:14:05;;;;;;;12.83;6.73;;;4.30;93.30;;;;;;5074143;28;20468;-68
2022/02/12 02:16:33;;;;;;;10.70;6.40;;;4.30;93.30;;;;;;5073963;28;20488;-69
2022/02/12 02:19:00;;;;;;;12.73;6.53;;;4.20;93.20;;;;;;5073915;28;20429;-68
2022/02/12 02:21:29;;;;;;;13.37;6.00;;;4.20;93.30;;;;;;5074273;28;20455;-68
2022/02/12 02:23:57;;;;;;;12.73;6.00;;;4.10;93.40;;;;;;5073753;28;20448;-68
2022/02/12 02:26:24;;;;;;;13.87;7.17;;;4.10;93.50;;;;;;5073237;28;20448;-68
2022/02/12 02:28:50;;;;;;;17.40;7.20;;;4.10;93.50;;;;;;5073602;28;20811;-68
2022/02/12 02:31:17;;;;;;;17.70;6.50;;;4.10;93.40;;;;;;5073569;28;20452;-68
2022/02/12 02:33:44;;;;;;;15.27;7.37;;;4.00;93.40;;;;;;5073357;28;20445;-67
2022/02/12 02:36:12;;;;;;;16.03;6.50;;;4.00;93.70;;;;;;5073419;28;20492;-68
2022/02/12 02:38:39;;;;;;;11.20;5.73;;;4.00;93.70;;;;;;5073560;28;20444;-68
2022/02/12 02:41:07;;;;;;;18.67;6.63;;;4.00;93.70;;;;;;5073497;28;20445;-68
2022/02/12 02:43:34;;;;;;;11.33;5.20;;;4.00;93.70;;;;;;5073467;28;20451;-68
2022/02/12 02:46:00;;;;;;;13.90;6.10;;;3.90;93.60;;;;;;5076435;28;20472;-68
2022/02/12 02:48:27;;;;;;;13.53;5.23;;;4.00;93.60;;;;;;5077312;28;20444;-68
2022/02/12 02:56:23;;;;;;;9.50;4.93;;;3.90;93.90;;;;;;5076671;28;20463;-68
2022/02/12 02:58:53;;;;;;;12.50;6.27;;;3.90;94.10;;;;;;5076852;28;20452;-68
2022/02/12 03:01:20;;;;;;;12.60;5.80;;;3.90;94.10;;;;;;5076847;28;20452;-68
2022/02/12 03:03:49;;;;;;;15.53;6.13;;;3.90;94.10;;;;;;5076717;28;20444;-68
2022/02/12 03:06:18;;;;;;;17.50;7.67;;;3.90;94.10;;;;;;5076586;28;20437;-67
2022/02/12 03:08:45;;;;;;;13.93;5.90;;;3.90;94.10;;;;;;5077327;28;20433;-68
2022/02/12 03:11:13;;;;;;;12.07;5.93;;;3.90;94.10;;;;;;5076770;28;20864;-68
2022/02/12 03:13:42;;;;;;;13.27;5.60;;;3.90;94.20;;;;;;5076498;28;20476;-67
2022/02/12 03:16:11;;;;;;;15.30;5.60;;;3.90;94.10;;;;;;5076460;28;20521;-68
2022/02/12 03:18:38;;;;;;;16.03;6.13;;;3.80;94.10;;;;;;5076585;28;20943;-68
2022/02/12 03:21:04;;;;;;;12.50;5.27;;;3.80;94.20;;;;;;5076442;28;20452;-68
2022/02/12 03:23:31;;;;;;;19.93;7.10;;;3.80;94.40;;;;;;5076414;28;20440;-68
2022/02/12 03:25:58;;;;;;;9.70;5.63;;;3.80;94.60;;;;;;5076283;28;20461;-68
2022/02/12 03:28:25;;;;;;;12.47;5.53;;;3.80;94.90;;;;;;5076328;28;20476;-68
2022/02/12 03:30:53;;;;;;;12.47;6.10;;;3.80;94.90;;;;;;5076370;28;20452;-68
2022/02/12 03:33:20;;;;;;;10.70;5.67;;;3.80;94.90;;;;;;5076176;28;20444;-68
2022/02/12 03:35:49;;;;;;;16.73;5.97;;;3.80;94.80;;;;;;5076082;28;20480;-68
2022/02/12 03:38:17;;;;;;;11.07;5.70;;;3.80;94.80;;;;;;5076120;28;20531;-68
2022/02/12 03:40:46;;;;;;;10.47;6.13;;;3.80;94.90;;;;;;5076047;28;20451;-68
2022/02/12 03:43:13;;;;;;;11.83;5.87;;;3.80;95.00;;;;;;5076041;28;20460;-68
2022/02/12 03:45:41;;;;;;;11.37;7.43;;;3.80;94.90;;;;;;5075886;28;20488;-68
2022/02/12 03:48:09;;;;;;;10.63;5.93;;;3.80;94.70;;;;;;5075978;28;20790;-68
2022/02/12 03:50:37;;;;;;;15.47;6.20;;;3.80;94.60;;;;;;5075826;28;20449;-68
2022/02/12 03:53:06;;;;;;;20.00;6.57;;;3.70;94.60;;;;;;5075853;28;20452;-68
2022/02/12 03:55:37;;;;;;;10.00;7.67;;;3.70;94.50;;;;;;5075637;28;20497;-68
2022/02/12 03:58:05;;;;;;;19.40;8.63;;;3.70;94.60;;;;;;5075283;28;20433;-68
2022/02/12 04:00:33;;;;;;;19.50;8.67;;;3.70;94.70;;;;;;5075763;28;20459;-68
2022/02/12 04:03:01;;;;;;;16.37;7.90;;;3.70;94.50;;;;;;5075662;28;20444;-68
2022/02/12 04:05:30;;;;;;;12.53;7.10;;;3.70;94.30;;;;;;5075282;28;20469;-68
2022/02/12 04:07:57;;;;;;;16.90;9.40;;;3.60;94.40;;;;;;5075007;28;20475;-68
2022/02/12 04:10:24;;;;;;;18.93;8.40;;;3.60;94.60;;;;;;5075414;28;20460;-68
2022/02/12 04:12:51;;;;;;;14.13;7.43;;;3.60;94.90;;;;;;5075470;28;20445;-68
2022/02/12 04:15:19;;;;;;;14.07;7.43;;;3.60;95.20;;;;;;5075274;28;20487;-68
2022/02/12 04:17:47;;;;;;;14.67;7.33;;;3.60;95.30;;;;;;5075438;28;20449;-68
2022/02/12 04:20:16;;;;;;;13.23;6.90;;;3.60;95.50;;;;;;5075058;28;20445;-68
2022/02/12 04:22:45;;;;;;;16.53;7.13;;;3.60;95.60;;;;;;5075168;28;20445;-68
2022/02/12 04:25:13;;;;;;;19.87;6.33;;;3.60;95.70;;;;;;5075262;28;20461;-68
2022/02/12 04:27:40;;;;;;;12.23;5.43;;;3.60;95.70;;;;;;5075192;28;20444;-68
2022/02/12 04:30:08;;;;;;;9.87;5.63;;;3.60;95.70;;;;;;5075119;28;20448;-68
2022/02/12 04:32:35;;;;;;;12.50;5.97;;;3.60;95.70;;;;;;5075143;28;20477;-68
2022/02/12 04:35:03;;;;;;;8.73;5.80;;;3.60;95.70;;;;;;5074881;28;20830;-68
2022/02/12 04:37:31;;;;;;;17.67;6.20;;;3.60;95.60;;;;;;5074672;28;20449;-68
2022/02/12 04:40:00;;;;;;;15.93;6.93;;;3.60;95.60;;;;;;5075807;28;20848;-68
2022/02/12 04:42:27;;;;;;;12.90;6.13;;;3.60;95.50;;;;;;5074875;28;20456;-68
2022/02/12 04:44:54;;;;;;;12.70;6.53;;;3.60;95.30;;;;;;5074512;28;21001;-68
2022/02/12 04:47:22;;;;;;;11.57;6.80;;;3.60;95.10;;;;;;5074516;28;20443;-68
2022/02/12 04:49:49;;;;;;;14.10;6.30;;;3.50;95.00;;;;;;5074757;28;20445;-68
2022/02/12 04:52:17;;;;;;;9.93;5.70;;;3.50;95.10;;;;;;5074698;28;20459;-68
2022/02/12 04:54:44;;;;;;;12.77;6.10;;;3.50;95.10;;;;;;5074576;28;20468;-68
2022/02/12 04:57:12;;;;;;;16.07;6.83;;;3.50;95.10;;;;;;5074471;28;20487;-68
2022/02/12 04:59:39;;;;;;;12.97;5.00;;;3.40;95.00;;;;;;5074496;28;20453;-68
2022/02/12 05:02:06;;;;;;;8.87;5.60;;;3.40;95.10;;;;;;5074583;28;20436;-68
2022/02/12 05:04:33;;;;;;;15.10;6.50;;;3.40;95.10;;;;;;5074072;28;20476;-69
2022/02/12 05:07:00;;;;;;;10.40;4.83;;;3.40;95.10;;;;;;5074201;28;20453;-68
2022/02/12 05:09:27;;;;;;;14.27;5.50;;;3.40;95.10;;;;;;5073462;28;20444;-68
2022/02/12 05:11:54;;;;;;;10.90;4.63;;;3.40;95.20;;;;;;5074337;28;20476;-68
2022/02/12 05:14:22;;;;;;;8.90;5.53;;;3.30;95.40;;;;;;5073857;28;20976;-68
2022/02/12 05:16:49;;;;;;;8.63;5.00;;;3.30;95.60;;;;;;5074155;28;20472;-68
2022/02/12 05:19:16;;;;;;;13.70;5.10;;;3.30;95.80;;;;;;5074161;28;20452;-68
2022/02/12 05:21:43;;;;;;;11.47;4.57;;;3.30;95.60;;;;;;5073758;28;20961;-68
2022/02/12 05:24:10;;;;;;;10.17;4.97;;;3.30;95.50;;;;;;5073989;28;20464;-68
2022/02/12 05:26:37;;;;;;;11.93;4.43;;;3.30;95.40;;;;;;5074096;28;20468;-68
2022/02/12 05:29:04;;;;;;;12.63;5.43;;;3.30;95.40;;;;;;5074029;28;20503;-68
2022/02/12 05:31:32;;;;;;;10.03;4.73;;;3.20;95.40;;;;;;5074035;28;20449;-68
2022/02/12 05:33:59;;;;;;;8.30;4.70;;;3.20;95.40;;;;;;5073914;28;20425;-68
2022/02/12 05:36:25;;;;;;;10.37;4.87;;;3.20;95.40;;;;;;5073846;28;20484;-68
2022/02/12 05:38:52;;;;;;;12.57;4.63;;;3.20;95.40;;;;;;5073837;28;20449;-68
2022/02/12 05:41:19;;;;;;;9.10;4.47;;;3.20;95.40;;;;;;5073807;28;20473;-68
2022/02/12 05:43:46;;;;;;;9.10;4.60;;;3.20;95.40;;;;;;5073668;28;20448;-68
2022/02/12 05:46:13;;;;;;;6.10;3.73;;;3.20;95.30;;;;;;5073843;28;20445;-68
2022/02/12 05:48:43;;;;;;;7.17;4.53;;;3.20;95.40;;;;;;5073924;28;20444;-69
2022/02/12 05:51:10;;;;;;;20.63;4.63;;;3.20;95.70;;;;;;5073951;28;20433;-68
2022/02/12 05:53:38;;;;;;;10.20;4.67;;;3.20;95.80;;;;;;5074070;28;20816;-69
2022/02/12 05:56:05;;;;;;;10.70;4.60;;;3.20;95.90;;;;;;5073857;28;20915;-68
2022/02/12 05:58:32;;;;;;;11.73;4.77;;;3.20;96.20;;;;;;5073497;28;20943;-69
2022/02/12 06:00:58;;;;;;;12.50;4.00;;;3.20;96.30;;;;;;5073545;28;20440;-68
2022/02/12 06:03:25;;;;;;;8.77;5.57;;;3.20;96.40;;;;;;5073290;28;20445;-68
2022/02/12 06:05:53;;;;;;;13.43;4.87;;;3.20;96.30;;;;;;5073465;28;20467;-68
2022/02/12 06:08:20;;;;;;;13.77;5.10;;;3.20;96.20;;;;;;5073165;28;20825;-68
2022/02/12 06:10:50;;;;;;;7.80;4.77;;;3.20;96.10;;;;;;5073349;28;20452;-68
2022/02/12 06:13:17;;;;;;;8.87;5.40;;;3.20;95.90;;;;;;5073529;28;20433;-68
2022/02/12 06:15:44;;;;;;;16.90;6.40;;;3.20;95.70;;;;;;5073221;28;20464;-68
2022/02/12 06:18:10;;;;;;;13.60;5.00;;;3.10;95.50;;;;;;5073045;28;20451;-68
2022/02/12 06:20:37;;;;;;;8.33;4.67;;;3.10;95.50;;;;;;5073111;28;20448;-68
2022/02/12 06:23:05;;;;;;;10.63;5.00;;;3.10;95.50;;;;;;5073348;28;20449;-68
2022/02/12 06:25:32;;;;;;;9.63;3.97;;;3.10;95.70;;;;;;5073267;28;20469;-68
2022/02/12 06:27:59;;;;;;;14.20;4.77;;;3.10;95.80;;;;;;5073522;28;20468;-68
2022/02/12 06:30:25;;;;;;;14.87;4.60;;;3.10;95.90;;;;;;5073277;28;20811;-68
2022/02/12 06:32:52;;;;;;;18.90;5.90;;;3.10;95.90;;;;;;5072945;28;20936;-68
2022/02/12 06:35:19;;;;;;;10.10;5.00;;;3.10;95.80;;;;;;5073170;28;20464;-68
2022/02/12 06:37:46;;;;;;;8.17;4.50;;;3.10;95.60;;;;;;5073089;28;20484;-68
2022/02/12 06:40:14;;;;;;;7.80;4.80;;;3.10;95.60;;;;;;5073225;28;20440;-68
2022/02/12 06:42:42;;;;;;;8.73;5.17;;;3.00;95.80;;;;;;5072863;28;20444;-68
2022/02/12 06:45:10;;;;;;;10.83;4.97;;;3.00;95.60;;;;;;5073021;28;20831;-68
2022/02/12 06:47:37;;;;;;;10.77;4.00;;;3.00;95.60;;;;;;5073098;28;20451;-68
2022/02/12 06:50:05;;;;;;;13.20;5.03;;;2.90;95.70;;;;;;5072739;28;20451;-68
2022/02/12 06:52:32;;;;;;;17.13;5.20;;;2.90;95.70;;;;;;5073064;28;20449;-68
2022/02/12 06:54:58;;;;;;;8.20;4.90;;;2.90;95.60;;;;;;5072926;28;20979;-68
2022/02/12 06:57:26;;;;;;;11.43;5.47;;;2.90;95.80;;;;;;5072819;28;20872;-68
2022/02/12 06:59:53;;;;;;;15.80;4.90;;;2.90;95.90;;;;;;5072997;28;20901;-68
2022/02/12 07:02:20;;;;;;;13.03;4.60;;;2.90;95.90;;;;;;5072661;28;20798;-68
2022/02/12 07:04:47;;;;;;;9.10;5.27;;;2.90;95.90;;;;;;5072877;28;20561;-68
2022/02/12 07:07:13;;;;;;;11.80;5.20;;;2.90;96.00;;;;;;5072529;28;20461;-68
2022/02/12 07:09:40;;;;;;;10.13;5.00;;;2.90;96.00;;;;;;5072846;28;20452;-68
2022/02/12 07:12:08;;;;;;;12.53;5.70;;;2.90;95.90;;;;;;5072563;28;20851;-68
2022/02/12 07:14:36;;;;;;;7.60;4.40;;;2.90;95.90;;;;;;5072716;28;20468;-68
2022/02/12 07:17:04;;;;;;;10.40;4.73;;;2.90;95.70;;;;;;5072512;28;20994;-68
2022/02/12 07:19:31;;;;;;;9.77;4.50;;;2.90;95.80;;;;;;5072715;28;20453;-68
2022/02/12 07:21:57;;;;;;;13.83;5.93;;;2.90;95.80;;;;;;5072715;28;20452;-69
2022/02/12 07:24:24;;;;;;;13.53;5.33;;;2.90;95.90;;;;;;5072242;28;20472;-68
2022/02/12 07:26:51;;;;;;;14.50;5.57;;;2.80;96.10;;;;;;5072691;28;20445;-68
2022/02/12 07:29:17;;;;;;;13.57;5.83;;;2.90;96.30;;;;;;5072257;28;20955;-68
2022/02/12 07:31:45;;;;;;;9.50;5.30;;;2.90;96.50;;;;;;5073517;28;20440;-68
2022/02/12 07:34:15;;;;;;;9.73;5.87;;;2.90;96.50;;;;;;5076096;28;20479;-68
2022/02/12 07:36:42;;;;;;;11.63;6.17;;;2.90;96.40;;;;;;5076067;28;20489;-69
2022/02/12 07:39:08;;;;;;;9.67;5.67;;;2.90;96.40;;;;;;5076093;28;20451;-68
2022/02/12 07:41:35;;;;;;;15.43;6.30;;;3.00;96.60;;;;;;5075792;28;20820;-68
2022/02/12 07:44:02;;;;;;;12.70;6.67;;;3.00;96.70;;;;;;5075671;28;20968;-68
2022/02/12 07:46:29;;;;;;;12.77;6.33;;;3.00;96.70;;;;;;5075692;28;20959;-68
2022/02/12 07:48:57;;;;;;;14.73;6.10;;;3.00;96.70;;;;;;5075962;28;20813;-69
2022/02/12 07:51:23;;;;;;;13.77;6.17;;;3.10;96.80;;;;;;5075954;28;20496;-68
2022/02/12 07:53:50;;;;;;;8.13;5.77;;;3.10;96.80;;;;;;5075836;28;20476;-68
2022/02/12 07:56:17;;;;;;;17.13;6.00;;;3.10;96.90;;;;;;5075428;28;20989;-71
2022/02/12 07:58:45;;;;;;;13.83;6.63;;;3.20;97.10;;;;;;5075681;28;20452;-68
2022/02/12 08:01:11;;;;;;;11.13;5.87;;;3.20;97.10;;;;;;5075780;28;20505;-68
2022/02/12 08:03:38;;;;;;;19.90;5.43;;;3.30;97.30;;;;;;5075427;28;20923;-68
2022/02/12 08:07:27;;;;;;;9.37;5.57;;;3.30;97.40;;;;;;5075502;28;20469;-68
2022/02/12 08:08:53;;;;;;;13.00;6.00;;;3.40;97.50;;;;;;5075140;28;20437;-68
2022/02/12 08:11:27;;;;;;;12.90;6.20;;;3.40;97.40;;;;;;5075533;28;20445;-68
2022/02/12 08:13:54;;;;;;;9.93;6.23;;;3.50;97.40;;;;;;5075476;28;20524;-68
2022/02/12 08:16:22;;;;;;;17.40;6.60;;;3.60;97.40;;;;;;5076193;28;20444;-68
2022/02/12 08:18:48;;;;;;;13.80;7.20;;;3.60;97.20;;;;;;5075127;28;20539;-68
2022/02/12 08:21:17;;;;;;;11.07;4.87;;;3.60;97.30;;;;;;5075424;28;20437;-68
2022/02/12 08:23:43;;;;;;;12.73;5.90;;;3.70;97.40;;;;;;5075216;28;20452;-68
2022/02/12 08:26:10;;;;;;;9.17;4.00;;;3.70;97.10;;;;;;5075038;28;20436;-68
2022/02/12 08:28:37;;;;;;;10.83;4.27;;;3.80;97.00;;;;;;5075196;28;20444;-68
2022/02/12 08:31:04;;;;;;;6.83;3.83;;;3.90;96.50;;;;;;5075144;28;20440;-68
2022/02/12 08:33:30;;;;;;;8.67;3.57;;;3.90;96.30;;;;;;5075112;28;20449;-69
2022/02/12 08:35:57;;;;;;;8.17;3.40;;;4.00;96.10;;;;;;5075026;28;20464;-68
2022/02/12 08:38:26;;;;;;;6.93;3.27;;;4.10;96.20;;;;;;5074931;28;20484;-68
2022/02/12 08:40:53;;;;;;;12.00;3.93;;;4.10;95.90;;;;;;5074690;28;20944;-68
2022/02/12 08:43:20;;;;;;;8.97;3.27;;;4.10;96.00;;;;;;5074492;28;20453;-68
2022/02/12 08:45:46;;;;;;;11.63;4.13;;;4.20;96.60;;;;;;5074504;28;20990;-68
2022/02/12 08:48:13;;;;;;;6.80;3.50;;;4.30;96.10;;;;;;5074792;28;20436;-68
2022/02/12 08:50:40;;;;;;;11.03;4.17;;;4.30;95.80;;;;;;5074755;28;20447;-68
2022/02/12 08:53:07;;;;;;;12.23;3.90;;;4.40;95.40;;;;;;5074694;28;20436;-68
2022/02/12 08:55:35;;;;;;;7.40;3.90;;;4.50;95.20;;;;;;5074631;28;20468;-68
2022/02/12 08:58:02;;;;;;;13.90;4.30;;;4.40;95.20;;;;;;5074523;28;20812;-69
2022/02/12 09:00:29;;;;;;;17.00;5.00;;;4.50;95.10;;;;;;5074480;28;20453;-68
2022/02/12 09:02:55;;;;;;;11.20;4.50;;;4.50;95.10;;;;;;5074584;28;20440;-69
2022/02/12 09:05:22;;;;;;;17.70;4.43;;;4.60;95.20;;;;;;5074308;28;20469;-68
2022/02/12 09:07:49;;;;;;;12.37;3.70;;;4.70;95.30;;;;;;5074016;28;20518;-68
2022/02/12 09:10:16;;;;;;;14.10;5.27;;;4.70;95.80;;;;;;5074309;28;20445;-67
2022/02/12 09:12:44;;;;;;;21.43;4.73;;;4.90;97.60;;;;;;5074321;28;20475;-66
2022/02/12 09:15:10;;;;;;;11.87;5.10;;;5.00;97.20;;;;;;5074218;28;20473;-67
2022/02/12 09:17:37;;;;;;;14.00;5.20;;;5.20;96.70;;;;;;5074193;28;20473;-66
2022/02/12 09:20:05;;;;;;;20.73;7.17;;;5.40;96.00;;;;;;5074205;28;20451;-66
2022/02/12 09:22:32;;;;;;;26.73;5.10;;;5.50;95.90;;;;;;5074196;28;20445;-66
2022/02/12 09:24:58;;;;;;;12.77;4.20;;;5.70;94.60;;;;;;5074225;28;20828;-67
2022/02/12 09:27:25;;;;;;;14.43;5.03;;;5.80;93.90;;;;;;5074873;28;20445;-67
2022/02/12 09:29:58;;;;;;;11.70;4.97;;;5.90;94.70;;;;;;5074118;28;20944;-68
2022/02/12 09:32:25;;;;;;;24.97;5.47;;;6.00;93.30;;;;;;5074188;28;20911;-68
2022/02/12 09:34:53;;;;;;;14.43;4.00;;;6.00;92.00;;;;;;5073880;28;20862;-67
2022/02/12 09:37:20;;;;;;;13.97;4.47;;;6.10;92.20;;;;;;5073985;28;20534;-67
2022/02/12 09:39:46;;;;;;;8.73;3.60;;;6.00;92.30;;;;;;5073973;28;20812;-67
2022/02/12 09:42:14;;;;;;;13.37;4.97;;;6.00;91.80;;;;;;5073876;28;20444;-67
2022/02/12 09:44:41;;;;;;;14.20;3.90;;;6.00;92.20;;;;;;5073792;28;20518;-68
2022/02/12 09:47:31;;;;;;;12.47;3.80;;;6.10;95.10;;;;;;5073377;28;20958;-67
2022/02/12 09:49:59;;;;;;;12.47;3.77;;;6.20;94.60;;;;;;5073729;28;20425;-67
2022/02/12 09:52:31;;;;;;;11.60;4.30;;;6.30;92.10;;;;;;5073804;28;20448;-67
2022/02/12 09:54:59;;;;;;;7.83;4.00;;;6.30;93.00;;;;;;5073213;28;21149;-67
2022/02/12 09:57:26;;;;;;;17.37;4.53;;;6.40;92.50;;;;;;5073201;28;20480;-68
2022/02/12 09:59:58;;;;;;;15.23;5.10;;;6.50;92.10;;;;;;5073630;28;20492;-68
2022/02/12 10:02:26;;;;;;;10.80;3.73;;;6.50;90.60;;;;;;5073644;28;20498;-68
2022/02/12 10:05:25;;;;;;;9.17;4.70;;;6.50;89.50;;;;;;5073481;28;20465;-67
2022/02/12 10:07:53;;;;;;;12.17;3.90;;;6.40;90.00;;;;;;5073168;28;20465;-68
2022/02/12 10:10:22;;;;;;;11.80;4.00;;;6.40;90.70;;;;;;5073496;28;20437;-68
2022/02/12 10:12:49;;;;;;;19.77;4.77;;;6.40;87.70;;;;;;5073460;28;20433;-67
2022/02/12 10:15:24;;;;;;;9.03;3.40;;;6.40;87.90;;;;;;5073381;28;20464;-68
2022/02/12 10:17:54;;;;;;;14.40;3.50;;;6.40;86.10;;;;;;5073014;28;21027;-68
2022/02/12 10:20:26;;;;;;;11.37;3.67;;;6.30;86.00;;;;;;5073369;28;20440;-69
2022/02/12 10:22:54;;;;;;;11.13;3.77;;;6.20;88.00;;;;;;5073303;28;20449;-68
2022/02/12 10:25:21;;;;;;;12.17;3.30;;;6.30;89.50;;;;;;5073011;28;20499;-68
2022/02/12 10:27:49;;;;;;;10.10;3.87;;;6.30;86.70;;;;;;5073274;28;20448;-68
2022/02/12 10:30:16;;;;;;;8.23;4.00;;;6.40;85.70;;;;;;5073168;28;20794;-69
2022/02/12 10:32:43;;;;;;;12.37;4.40;;;6.30;84.60;;;;;;5073265;28;20455;-69
2022/02/12 10:35:12;;;;;;;7.17;3.53;;;6.40;90.30;;;;;;5073201;28;20476;-68
2022/02/12 10:37:42;;;;;;;9.97;3.47;;;6.50;89.50;;;;;;5073166;28;20862;-68
2022/02/12 10:40:10;;;;;;;10.40;3.63;;;6.60;87.00;;;;;;5072988;28;20406;-68
2022/02/12 10:42:43;;;;;;;10.70;3.53;;;6.70;86.10;;;;;;5073170;28;20440;-69
2022/02/12 10:45:13;;;;;;;10.40;3.87;;;6.80;85.00;;;;;;5073120;28;20469;-68
2022/02/12 10:47:42;;;;;;;11.33;4.30;;;6.80;83.30;;;;;;5073127;28;20535;-68
2022/02/12 10:50:10;;;;;;;13.50;3.90;;;6.80;83.00;;;;;;5073092;28;20527;-68
2022/02/12 10:52:43;;;;;;;9.13;3.83;;;7.00;81.30;;;;;;5073667;28;20448;-68
2022/02/12 10:55:29;;;;;;;16.30;3.40;;;7.20;78.40;;;;;;5073016;28;20573;-67
2022/02/12 10:57:56;;;;;;;10.27;3.47;;;7.40;78.00;;;;;;5073084;28;20464;-68
2022/02/12 11:00:28;;;;;;;10.90;4.00;;;7.60;75.00;;;;;;5072824;28;20445;-68
2022/02/12 11:02:55;;;;;;;13.23;4.30;;;7.80;74.90;;;;;;5072989;28;20428;-68
2022/02/12 11:05:24;;;;;;;6.57;3.63;;;7.90;73.40;;;;;;5072881;28;20503;-68
2022/02/12 11:07:53;;;;;;;15.23;3.87;;;7.90;73.90;;;;;;5075357;28;20456;-67
2022/02/12 11:10:21;;;;;;;8.97;4.33;;;7.80;73.60;;;;;;5076657;28;20440;-67
2022/02/12 11:12:48;;;;;;;11.27;3.50;;;7.80;72.90;;;;;;5077176;28;20451;-68
2022/02/12 11:15:15;;;;;;;8.00;3.43;;;7.80;73.50;;;;;;5076489;28;20468;-68
2022/02/12 11:17:44;;;;;;;6.97;2.90;;;7.90;71.90;;;;;;5076124;28;20821;-68
2022/02/12 11:20:12;;;;;;;8.83;4.50;;;7.90;70.80;;;;;;5076481;28;20449;-68
2022/02/12 11:22:40;;;;;;;8.67;4.00;;;7.90;69.80;;;;;;5076423;28;20494;-68
2022/02/12 11:25:36;;;;;;;18.20;3.07;;;8.00;70.10;;;;;;5076286;28;20483;-67
2022/02/12 11:28:08;;;;;;;9.20;3.37;;;8.30;69.00;;;;;;5076673;28;20405;-68
2022/02/12 11:30:37;;;;;;;14.13;3.87;;;8.70;66.00;;;;;;5076217;28;20440;-68
2022/02/12 11:33:08;;;;;;;11.03;3.63;;;9.20;64.60;;;;;;5076147;28;20532;-68
2022/02/12 11:35:35;;;;;;;8.53;3.30;;;9.70;61.10;;;;;;5076142;28;20468;-68
2022/02/12 11:38:03;;;;;;;11.50;3.60;;;10.20;58.80;;;;;;5076088;28;20815;-68
2022/02/12 11:40:30;;;;;;;13.07;4.10;;;10.80;57.50;;;;;;5076069;28;20455;-68
2022/02/12 11:42:59;;;;;;;12.97;3.13;;;11.20;55.30;;;;;;5075813;28;20449;-69
2022/02/12 11:45:30;;;;;;;13.33;3.53;;;11.50;53.70;;;;;;5076037;28;20460;-68
2022/02/12 11:48:18;;;;;;;7.80;3.67;;;12.00;53.20;;;;;;5076151;28;20429;-69
2022/02/12 11:50:51;;;;;;;7.30;3.60;;;12.50;51.50;;;;;;5075795;28;20907;-69
2022/02/12 11:53:36;;;;;;;10.47;4.07;;;12.90;48.80;;;;;;5075702;28;20435;-69
2022/02/12 11:56:11;;;;;;;10.13;3.40;;;13.30;48.30;;;;;;5075852;28;20479;-69
2022/02/12 11:59:03;;;;;;;10.90;3.40;;;13.70;47.50;;;;;;5075473;28;20990;-69
2022/02/12 12:01:44;;;;;;;7.90;3.00;;;14.00;45.80;;;;;;5060832;28;20460;-69
2022/02/12 12:04:15;;;;;;;7.40;3.17;;;14.30;44.20;;;;;;5075683;28;20467;-69
2022/02/12 12:07:03;;;;;;;8.87;3.63;;;14.50;42.50;;;;;;5075635;28;20534;-69
2022/02/12 12:09:31;;;;;;;8.53;3.53;;;14.60;42.00;;;;;;5075633;28;20928;-69
2022/02/12 12:12:19;;;;;;;8.97;3.13;;;14.80;41.60;;;;;;5075451;28;20459;-69
2022/02/12 12:14:48;;;;;;;10.87;3.03;;;15.00;41.60;;;;;;5075705;28;20465;-69
2022/02/12 12:17:16;;;;;;;8.00;2.40;;;15.40;41.30;;;;;;5075221;28;20445;-69
2022/02/12 12:19:50;;;;;;;7.10;2.80;;;15.40;40.10;;;;;;5075319;28;20639;-69
2022/02/12 12:22:17;;;;;;;6.10;2.80;;;15.50;40.10;;;;;;5075332;28;20895;-69
2022/02/12 12:24:44;;;;;;;10.50;3.20;;;15.50;39.50;;;;;;5075347;28;20475;-70
2022/02/12 12:27:15;;;;;;;5.60;2.50;;;15.60;40.40;;;;;;5075916;28;20800;-69
2022/02/12 12:32:30;;;;;;;6.90;3.10;;;15.70;38.60;;;;;;5075240;28;20404;-72
2022/02/12 12:35:00;;;;;;;8.10;3.10;;;15.50;39.00;;;;;;5075204;28;20477;-73
2022/02/12 12:37:29;;;;;;;13.50;3.33;;;15.50;39.50;;;;;;5075104;28;20502;-72
2022/02/12 12:39:57;;;;;;;9.63;3.47;;;15.60;39.40;;;;;;5074961;28;20512;-72
2022/02/12 12:42:25;;;;;;;10.27;3.00;;;16.00;39.20;;;;;;5075054;28;20476;-70
2022/02/12 12:45:00;;;;;;;8.83;3.70;;;16.50;39.60;;;;;;5074964;28;20469;-70
2022/02/12 12:47:29;;;;;;;7.70;2.90;;;17.10;37.50;;;;;;5075057;28;20444;-70
2022/02/12 12:49:57;;;;;;;7.07;3.10;;;17.50;36.30;;;;;;5074975;28;20475;-70
2022/02/12 12:52:26;;;;;;;9.70;3.60;;;17.70;35.80;;;;;;5074430;28;20963;-70
2022/02/12 12:54:57;;;;;;;7.57;2.90;;;17.80;34.40;;;;;;5074777;28;20492;-70
2022/02/12 12:57:29;;;;;;;7.20;2.90;;;17.70;34.40;;;;;;5074914;28;20461;-70
2022/02/12 12:59:58;;;;;;;6.07;2.70;;;17.50;33.50;;;;;;5074628;28;20533;-70
2022/02/12 13:02:28;;;;;;;9.63;2.90;;;17.20;34.90;;;;;;5074687;28;20436;-71